createdAt,value
2019-02-17T00:01:49.692Z,27.80
2019-02-17T00:04:30.011Z,26.90
2019-02-17T00:07:02.794Z,24.40
2019-02-17T00:09:48.167Z,29.03
2019-02-17T00:12:32.511Z,33.10
2019-02-17T00:15:07.284Z,33.50
2019-02-17T00:17:52.811Z,32.70
2019-02-17T00:20:37.825Z,26.33
2019-02-17T00:23:37.265Z,31.83
2019-02-17T00:26:26.677Z,29.67
2019-02-17T00:29:25.525Z,33.87
2019-02-17T00:32:10.108Z,25.03
2019-02-17T00:35:11.191Z,26.20
2019-02-17T00:41:30.285Z,29.07
2019-02-17T00:48:04.939Z,28.70
2019-02-17T00:50:48.767Z,26.90
2019-02-17T00:53:55.009Z,29.53
2019-02-17T00:57:01.073Z,25.50
2019-02-17T01:00:30.913Z,24.33
2019-02-17T01:03:28.848Z,30.37
2019-02-17T01:06:41.600Z,28.70
2019-02-17T01:12:44.517Z,27.93
2019-02-17T01:15:25.944Z,23.80
2019-02-17T01:18:04.313Z,23.37
2019-02-17T01:20:57.997Z,28.10
2019-02-17T01:23:33.868Z,31.23
2019-02-17T01:26:29.116Z,28.13
2019-02-17T01:29:07.671Z,30.77
2019-02-17T01:31:58.753Z,27.07
2019-02-17T01:34:40.363Z,28.83
2019-02-17T01:37:17.360Z,31.57
2019-02-17T01:40:14.422Z,31.90
2019-02-17T01:43:00.469Z,31.00
2019-02-17T01:45:40.028Z,31.73
2019-02-17T01:48:17.438Z,30.53
2019-02-17T01:51:06.690Z,30.33
2019-02-17T01:53:41.506Z,28.73
2019-02-17T01:56:12.920Z,29.30
2019-02-17T01:58:45.362Z,34.37
2019-02-17T02:01:45.903Z,27.50
2019-02-17T02:04:36.946Z,26.03
2019-02-17T02:07:10.303Z,32.00
2019-02-17T02:09:47.806Z,30.47
2019-02-17T02:12:38.052Z,25.23
2019-02-17T02:15:21.975Z,33.07
2019-02-17T02:18:06.455Z,31.53
2019-02-17T02:20:40.172Z,26.50
2019-02-17T02:23:37.724Z,29.87
2019-02-17T02:29:40.989Z,32.57
2019-02-17T02:34:04.385Z,29.13
2019-02-17T02:35:17.614Z,29.40
2019-02-17T02:37:53.191Z,29.47
2019-02-17T02:40:37.502Z,31.60
2019-02-17T02:43:08.718Z,30.17
2019-02-17T02:45:39.489Z,29.50
2019-02-17T02:48:10.150Z,37.30
2019-02-17T02:50:40.909Z,24.90
2019-02-17T02:53:38.036Z,37.97
2019-02-17T02:56:10.285Z,33.27
2019-02-17T02:58:44.035Z,30.40
2019-02-17T03:01:15.568Z,36.40
2019-02-17T03:04:18.276Z,35.60
2019-02-17T03:07:01.393Z,30.53
2019-02-17T03:09:31.713Z,31.47
2019-02-17T03:14:52.564Z,27.90
2019-02-17T03:17:23.588Z,31.13
2019-02-17T03:19:54.228Z,31.57
2019-02-17T03:22:25.046Z,30.40
2019-02-17T03:24:56.570Z,27.20
2019-02-17T03:27:27.660Z,29.83
2019-02-17T03:30:05.521Z,28.27
2019-02-17T03:32:37.554Z,34.90
2019-02-17T03:35:19.608Z,37.30
2019-02-17T03:37:50.871Z,35.37
2019-02-17T03:40:21.913Z,35.87
2019-02-17T03:42:53.092Z,31.87
2019-02-17T03:45:24.013Z,32.57
2019-02-17T03:47:54.967Z,35.60
2019-02-17T03:50:25.695Z,35.87
2019-02-17T03:52:56.607Z,34.57
2019-02-17T03:55:27.679Z,32.17
2019-02-17T03:58:00.240Z,29.70
2019-02-17T04:00:37.727Z,31.60
2019-02-17T04:03:08.279Z,32.73
2019-02-17T04:05:59.943Z,34.20
2019-02-17T04:08:31.053Z,34.20
2019-02-17T04:11:01.893Z,34.63
2019-02-17T04:13:39.893Z,36.67
2019-02-17T04:16:22.687Z,35.90
2019-02-17T04:18:53.724Z,36.90
2019-02-17T04:21:24.889Z,30.23
2019-02-17T04:23:56.125Z,31.80
2019-02-17T04:26:27.157Z,35.10
2019-02-17T04:28:57.796Z,32.03
2019-02-17T04:31:28.772Z,38.17
2019-02-17T04:33:59.634Z,32.60
2019-02-17T04:36:35.889Z,36.00
2019-02-17T04:39:12.003Z,32.53
2019-02-17T04:41:53.880Z,32.33
2019-02-17T04:44:25.037Z,34.07
2019-02-17T04:47:00.686Z,40.00
2019-02-17T04:49:39.407Z,36.23
2019-02-17T04:52:17.310Z,32.03
2019-02-17T04:54:51.944Z,31.80
2019-02-17T04:57:24.613Z,34.47
2019-02-17T04:59:55.662Z,35.63
2019-02-17T05:02:26.598Z,35.33
2019-02-17T05:04:57.600Z,30.10
2019-02-17T05:07:28.441Z,33.73
2019-02-17T05:09:59.564Z,36.67
2019-02-17T05:12:48.822Z,36.87
2019-02-17T05:15:23.604Z,38.67
2019-02-17T05:17:54.409Z,31.43
2019-02-17T05:20:25.557Z,32.70
2019-02-17T05:22:56.504Z,34.83
2019-02-17T05:25:27.605Z,33.83
2019-02-17T05:27:58.139Z,34.63
2019-02-17T05:30:29.625Z,38.00
2019-02-17T05:33:00.646Z,34.23
2019-02-17T05:35:48.041Z,34.60
2019-02-17T05:38:21.367Z,33.67
2019-02-17T05:40:55.152Z,40.40
2019-02-17T05:43:25.840Z,40.43
2019-02-17T05:45:56.830Z,31.43
2019-02-17T05:48:29.373Z,34.63
2019-02-17T05:51:00.431Z,38.73
2019-02-17T05:53:31.576Z,34.30
2019-02-17T05:56:19.548Z,33.27
2019-02-17T05:58:53.768Z,34.30
2019-02-17T06:01:24.454Z,31.70
2019-02-17T06:03:55.316Z,31.83
2019-02-17T06:06:26.635Z,32.57
2019-02-17T06:08:57.641Z,34.30
2019-02-17T06:11:28.555Z,37.63
2019-02-17T06:14:30.365Z,37.60
2019-02-17T06:17:01.408Z,28.93
2019-02-17T06:20:01.697Z,37.03
2019-02-17T06:22:35.396Z,32.93
2019-02-17T06:25:57.163Z,37.23
2019-02-17T06:28:22.042Z,33.07
2019-02-17T06:30:56.056Z,37.30
2019-02-17T06:33:46.222Z,39.67
2019-02-17T06:36:23.587Z,33.60
2019-02-17T06:38:56.208Z,37.07
2019-02-17T06:41:36.565Z,31.47
2019-02-17T06:44:10.546Z,28.73
2019-02-17T06:46:53.828Z,34.40
2019-02-17T06:49:33.471Z,32.43
2019-02-17T06:52:06.494Z,30.93
2019-02-17T06:54:37.388Z,31.87
2019-02-17T06:57:18.280Z,29.33
2019-02-17T07:00:08.907Z,30.70
2019-02-17T07:02:39.751Z,29.17
2019-02-17T07:05:27.454Z,26.70
2019-02-17T07:08:09.578Z,33.77
2019-02-17T07:10:40.598Z,30.57
2019-02-17T07:13:11.393Z,34.07
2019-02-17T07:15:42.830Z,28.80
2019-02-17T07:18:38.046Z,29.60
2019-02-17T07:21:33.854Z,30.40
2019-02-17T07:24:15.020Z,23.33
2019-02-17T07:27:02.581Z,30.93
2019-02-17T07:29:54.389Z,34.23
2019-02-17T07:35:40.711Z,23.27
2019-02-17T07:38:11.500Z,27.40
2019-02-17T07:40:46.211Z,28.43
2019-02-17T07:43:17.168Z,23.90
2019-02-17T07:45:55.675Z,24.80
2019-02-17T07:48:33.563Z,25.97
2019-02-17T07:51:04.621Z,25.10
2019-02-17T07:53:37.784Z,26.70
2019-02-17T07:56:08.510Z,25.80
2019-02-17T07:58:40.633Z,26.40
2019-02-17T08:01:21.862Z,22.60
2019-02-17T08:04:07.218Z,24.57
2019-02-17T08:06:39.898Z,24.90
2019-02-17T08:09:11.226Z,21.83
2019-02-17T08:12:04.397Z,22.23
2019-02-17T08:14:36.970Z,23.20
2019-02-17T08:17:37.586Z,21.17
2019-02-17T08:20:09.405Z,23.47
2019-02-17T08:23:05.181Z,28.90
2019-02-17T08:25:34.963Z,24.30
2019-02-17T08:28:08.770Z,24.10
2019-02-17T08:30:39.602Z,26.17
2019-02-17T08:33:10.358Z,25.57
2019-02-17T08:35:41.236Z,22.43
2019-02-17T08:38:40.394Z,21.63
2019-02-17T08:41:11.005Z,25.57
2019-02-17T08:43:41.880Z,28.00
2019-02-17T08:46:14.546Z,21.43
2019-02-17T08:48:45.241Z,27.50
2019-02-17T08:51:16.006Z,24.67
2019-02-17T08:53:47.269Z,27.73
2019-02-17T08:56:21.391Z,21.03
2019-02-17T08:58:53.957Z,21.10
2019-02-17T09:01:26.519Z,25.83
2019-02-17T09:04:07.691Z,23.77
2019-02-17T09:06:38.399Z,24.83
2019-02-17T09:09:09.331Z,20.23
2019-02-17T09:11:39.920Z,24.20
2019-02-17T09:14:10.644Z,20.77
2019-02-17T09:16:41.542Z,19.63
2019-02-17T09:19:12.414Z,25.73
2019-02-17T09:21:43.175Z,22.00
2019-02-17T09:24:13.858Z,25.20
2019-02-17T09:26:45.019Z,22.70
2019-02-17T09:29:21.656Z,21.57
2019-02-17T09:31:54.465Z,20.70
2019-02-17T09:34:25.259Z,23.70
2019-02-17T09:36:56.676Z,21.90
2019-02-17T09:39:27.541Z,25.90
2019-02-17T09:41:58.324Z,24.50
2019-02-17T09:44:29.367Z,23.57
2019-02-17T09:47:00.134Z,22.33
2019-02-17T09:49:30.912Z,23.70
2019-02-17T09:52:01.592Z,23.43
2019-02-17T09:54:33.872Z,23.53
2019-02-17T09:57:07.689Z,23.03
2019-02-17T09:59:38.791Z,21.17
2019-02-17T10:02:12.857Z,23.13
2019-02-17T10:04:44.871Z,21.23
2019-02-17T10:07:17.402Z,22.77
2019-02-17T10:09:56.776Z,24.50
2019-02-17T10:12:28.579Z,22.90
2019-02-17T10:14:59.502Z,23.20
2019-02-17T10:17:30.323Z,24.23
2019-02-17T10:20:04.695Z,25.10
2019-02-17T10:22:35.512Z,27.50
2019-02-17T10:25:06.381Z,21.10
2019-02-17T10:27:46.944Z,28.00
2019-02-17T10:30:19.476Z,25.90
2019-02-17T10:32:50.244Z,27.70
2019-02-17T10:35:25.480Z,23.30
2019-02-17T10:37:58.812Z,24.37
2019-02-17T10:40:34.010Z,25.97
2019-02-17T10:43:07.874Z,25.27
2019-02-17T10:45:38.724Z,23.87
2019-02-17T10:48:09.534Z,30.27
2019-02-17T10:50:44.928Z,26.40
2019-02-17T10:53:15.645Z,20.97
2019-02-17T10:55:46.587Z,24.10
2019-02-17T10:58:20.500Z,21.90
2019-02-17T11:00:51.366Z,28.00
2019-02-17T11:03:22.478Z,25.70
2019-02-17T11:05:53.192Z,24.47
2019-02-17T11:08:25.655Z,25.27
2019-02-17T11:11:00.708Z,26.70
2019-02-17T11:13:33.039Z,22.80
2019-02-17T11:16:05.006Z,23.80
2019-02-17T11:18:38.542Z,25.50
2019-02-17T11:21:09.270Z,26.17
2019-02-17T11:23:39.955Z,28.23
2019-02-17T11:26:10.608Z,26.07
2019-02-17T11:28:41.483Z,27.63
2019-02-17T11:31:12.751Z,24.87
2019-02-17T11:33:48.170Z,24.43
2019-02-17T11:36:26.785Z,32.77
2019-02-17T11:38:57.751Z,27.87
2019-02-17T11:41:28.419Z,26.43
2019-02-17T11:44:01.275Z,25.83
2019-02-17T11:46:37.198Z,26.10
2019-02-17T11:49:10.736Z,30.03
2019-02-17T11:51:41.525Z,27.40
2019-02-17T11:54:36.921Z,26.00
2019-02-17T11:57:20.799Z,23.37
2019-02-17T12:00:25.282Z,27.87
2019-02-17T12:03:08.076Z,27.47
2019-02-17T12:05:40.789Z,26.90
2019-02-17T12:08:11.614Z,28.23
2019-02-17T12:10:50.597Z,24.27
2019-02-17T12:13:21.352Z,26.93
2019-02-17T12:15:52.229Z,25.87
2019-02-17T12:18:22.900Z,27.93
2019-02-17T12:21:07.076Z,31.70
2019-02-17T12:23:46.049Z,28.07
2019-02-17T12:26:32.140Z,28.90
2019-02-17T12:29:14.154Z,28.85
2019-02-17T12:31:44.928Z,23.70
2019-02-17T12:34:16.219Z,29.33
2019-02-17T12:36:57.960Z,28.73
2019-02-17T12:39:28.739Z,31.40
2019-02-17T12:42:07.736Z,29.17
2019-02-17T12:44:43.815Z,28.13
2019-02-17T12:47:14.778Z,28.00
2019-02-17T12:49:47.355Z,28.43
2019-02-17T12:52:23.409Z,26.87
2019-02-17T12:54:57.221Z,25.27
2019-02-17T12:57:28.238Z,28.60
2019-02-17T13:00:05.733Z,27.07
2019-02-17T13:02:40.325Z,25.70
2019-02-17T13:05:12.645Z,30.30
2019-02-17T13:07:45.612Z,24.73
2019-02-17T13:10:22.302Z,25.80
2019-02-17T13:12:57.463Z,28.03
2019-02-17T13:15:49.933Z,28.57
2019-02-17T13:18:17.200Z,25.90
2019-02-17T13:20:53.443Z,26.93
2019-02-17T13:23:24.808Z,27.67
2019-02-17T13:26:16.851Z,27.07
2019-02-17T13:28:53.983Z,28.80
2019-02-17T13:31:40.640Z,27.80
2019-02-17T13:34:11.817Z,27.60
2019-02-17T13:36:42.927Z,29.60
2019-02-17T13:39:14.495Z,27.20
2019-02-17T13:41:53.501Z,30.10
2019-02-17T13:44:41.583Z,27.43
2019-02-17T13:47:35.931Z,28.47
2019-02-17T13:50:16.077Z,23.40
2019-02-17T13:52:47.030Z,27.80
2019-02-17T13:55:41.343Z,22.43
2019-02-17T13:58:18.249Z,26.90
2019-02-17T14:01:01.207Z,27.63
2019-02-17T14:03:49.404Z,26.03
2019-02-17T14:06:21.857Z,29.13
2019-02-17T14:08:52.568Z,27.50
2019-02-17T14:11:41.830Z,25.77
2019-02-17T14:14:20.535Z,29.90
2019-02-17T14:16:55.256Z,24.03
2019-02-17T14:19:48.522Z,26.40
2019-02-17T14:22:19.428Z,28.63
2019-02-17T14:24:50.626Z,25.03
2019-02-17T14:27:24.471Z,26.40
2019-02-17T14:29:57.076Z,21.10
2019-02-17T14:32:35.594Z,21.83
2019-02-17T14:35:11.325Z,26.80
2019-02-17T14:37:48.613Z,27.70
2019-02-17T14:40:19.687Z,24.13
2019-02-17T14:42:59.092Z,24.03
2019-02-17T14:45:32.869Z,27.60
2019-02-17T14:48:11.531Z,25.87
2019-02-17T14:50:44.700Z,22.53
2019-02-17T14:53:19.683Z,26.60
2019-02-17T14:55:49.833Z,24.80
2019-02-17T14:58:28.248Z,24.17
2019-02-17T15:00:58.957Z,26.60
2019-02-17T15:03:35.447Z,24.43
2019-02-17T15:06:09.366Z,25.30
2019-02-17T15:08:50.499Z,26.83
2019-02-17T15:11:23.457Z,25.23
2019-02-17T15:14:08.717Z,23.00
2019-02-17T15:16:41.975Z,24.57
2019-02-17T15:19:14.925Z,25.70
2019-02-17T15:21:47.071Z,23.83
2019-02-17T15:24:21.281Z,25.77
2019-02-17T15:26:52.521Z,21.13
2019-02-17T15:29:37.420Z,22.70
2019-02-17T15:32:15.332Z,25.70
2019-02-17T15:34:53.668Z,21.03
2019-02-17T15:37:43.935Z,22.60
2019-02-17T15:40:23.654Z,20.90
2019-02-17T15:43:02.188Z,19.80
2019-02-17T15:46:09.109Z,23.23
2019-02-17T15:48:50.306Z,26.13
2019-02-17T15:51:38.932Z,21.77
2019-02-17T15:54:09.873Z,20.83
2019-02-17T15:56:40.994Z,25.43
2019-02-17T15:59:19.917Z,21.53
2019-02-17T16:02:08.255Z,20.83
2019-02-17T16:04:39.128Z,26.53
2019-02-17T16:07:10.424Z,24.97
2019-02-17T16:09:45.352Z,21.03
2019-02-17T16:12:27.370Z,22.53
2019-02-17T16:15:10.819Z,20.20
2019-02-17T16:17:48.027Z,26.77
2019-02-17T16:20:25.879Z,21.87
2019-02-17T16:23:20.303Z,27.93
2019-02-17T16:26:15.985Z,27.00
2019-02-17T16:29:10.600Z,21.90
2019-02-17T16:32:11.589Z,23.70
2019-02-17T16:34:54.644Z,26.23
2019-02-17T16:37:38.790Z,26.60
2019-02-17T16:40:11.800Z,31.83
2019-02-17T16:43:06.714Z,26.20
2019-02-17T16:46:08.061Z,25.70
2019-02-17T16:48:39.251Z,34.77
2019-02-17T16:51:10.267Z,43.80
2019-02-17T16:53:41.144Z,30.57
2019-02-17T16:57:06.904Z,24.90
2019-02-17T16:59:40.597Z,30.30
2019-02-17T17:02:13.302Z,26.43
2019-02-17T17:05:10.356Z,32.00
2019-02-17T17:08:09.955Z,21.13
2019-02-17T17:10:49.203Z,26.63
2019-02-17T17:14:09.854Z,28.63
2019-02-17T17:16:38.390Z,30.17
2019-02-17T17:19:09.489Z,29.50
2019-02-17T17:21:40.572Z,28.20
2019-02-17T17:24:13.147Z,29.13
2019-02-17T17:26:44.250Z,25.43
2019-02-17T17:29:16.778Z,23.80
2019-02-17T17:31:47.999Z,29.33
2019-02-17T17:34:22.833Z,25.43
2019-02-17T17:36:55.310Z,23.90
2019-02-17T17:39:38.196Z,29.40
2019-02-17T17:42:10.338Z,29.10
2019-02-17T17:44:42.519Z,24.73
2019-02-17T17:47:16.866Z,25.57
2019-02-17T17:49:49.567Z,26.43
2019-02-17T17:52:20.926Z,26.07
2019-02-17T17:54:56.799Z,26.10
2019-02-17T17:57:45.351Z,22.83
2019-02-17T18:00:17.910Z,25.37
2019-02-17T18:02:53.519Z,23.27
2019-02-17T18:05:26.330Z,25.13
2019-02-17T18:08:16.580Z,29.03
2019-02-17T18:10:47.678Z,26.20
2019-02-17T18:13:22.059Z,29.80
2019-02-17T18:15:55.898Z,24.67
2019-02-17T18:18:34.325Z,28.20
2019-02-17T18:21:10.417Z,22.83
2019-02-17T18:23:53.923Z,22.80
2019-02-17T18:26:40.794Z,26.43
2019-02-17T18:29:16.652Z,22.50
2019-02-17T18:31:50.690Z,32.23
2019-02-17T18:34:39.837Z,28.10
2019-02-17T18:37:03.901Z,27.70
2019-02-17T18:39:37.122Z,22.67
2019-02-17T18:42:12.279Z,24.07
2019-02-17T18:44:46.600Z,23.60
2019-02-17T18:47:20.917Z,18.63
2019-02-17T18:50:11.318Z,22.83
2019-02-17T18:52:40.207Z,22.87
2019-02-17T18:55:14.933Z,22.87
2019-02-17T18:57:50.048Z,23.67
2019-02-17T19:00:20.602Z,25.27
2019-02-17T19:02:51.635Z,28.13
2019-02-17T19:05:31.691Z,25.27
2019-02-17T19:07:55.062Z,25.50
2019-02-17T19:10:25.957Z,25.33
2019-02-17T19:12:57.769Z,25.00
2019-02-17T19:15:28.314Z,22.90
2019-02-17T19:17:58.991Z,24.90
2019-02-17T19:20:29.876Z,23.30
2019-02-17T19:23:02.276Z,27.57
2019-02-17T19:25:35.731Z,21.67
2019-02-17T19:28:07.037Z,22.50
2019-02-17T19:30:40.853Z,27.50
2019-02-17T19:33:13.312Z,25.10
2019-02-17T19:35:46.920Z,23.40
2019-02-17T19:38:18.272Z,23.23
2019-02-17T19:40:50.515Z,19.93
2019-02-17T19:43:21.437Z,23.20
2019-02-17T19:45:54.758Z,28.20
2019-02-17T19:48:29.815Z,26.07
2019-02-17T19:51:05.628Z,23.57
2019-02-17T19:53:37.735Z,28.30
2019-02-17T19:56:10.001Z,26.50
2019-02-17T19:58:40.876Z,25.40
2019-02-17T20:01:14.715Z,26.10
2019-02-17T20:03:57.389Z,23.33
2019-02-17T20:06:36.231Z,27.47
2019-02-17T20:09:15.514Z,26.40
2019-02-17T20:11:48.092Z,27.17
2019-02-17T20:14:31.878Z,22.60
2019-02-17T20:17:08.654Z,22.23
2019-02-17T20:19:36.019Z,33.87
2019-02-17T20:22:06.756Z,28.90
2019-02-17T20:24:37.661Z,25.43
2019-02-17T20:27:08.331Z,27.23
2019-02-17T20:29:40.707Z,22.60
2019-02-17T20:32:11.464Z,24.97
2019-02-17T20:34:42.127Z,20.80
2019-02-17T20:37:15.334Z,19.97
2019-02-17T20:39:46.143Z,30.20
2019-02-17T20:42:16.836Z,24.23
2019-02-17T20:44:54.053Z,22.00
2019-02-17T20:47:28.653Z,23.73
2019-02-17T20:50:03.003Z,24.27
2019-02-17T20:52:37.037Z,22.17
2019-02-17T20:55:11.066Z,20.43
2019-02-17T20:57:44.637Z,20.03
2019-02-17T21:00:15.585Z,26.10
2019-02-17T21:02:46.672Z,25.80
2019-02-17T21:05:25.611Z,24.73
2019-02-17T21:08:01.064Z,24.53
2019-02-17T21:10:32.396Z,22.80
2019-02-17T21:13:03.047Z,20.07
2019-02-17T21:15:33.700Z,21.83
2019-02-17T21:18:11.771Z,20.43
2019-02-17T21:20:44.196Z,21.03
2019-02-17T21:23:16.690Z,21.30
2019-02-17T21:25:48.692Z,23.27
2019-02-17T21:28:19.582Z,17.70
2019-02-17T21:30:50.702Z,23.07
2019-02-17T21:33:21.455Z,23.20
2019-02-17T21:35:52.515Z,17.60
2019-02-17T21:38:25.065Z,22.00
2019-02-17T21:40:55.824Z,18.87
2019-02-17T21:43:33.987Z,22.33
2019-02-17T21:46:04.772Z,22.27
2019-02-17T21:48:36.293Z,22.00
2019-02-17T21:51:07.539Z,18.23
2019-02-17T21:53:38.252Z,23.20
2019-02-17T21:56:08.988Z,21.50
2019-02-17T21:58:39.706Z,21.53
2019-02-17T22:01:10.786Z,19.17
2019-02-17T22:03:41.613Z,21.90
2019-02-17T22:06:12.619Z,22.83
2019-02-17T22:08:43.612Z,21.40
2019-02-17T22:11:18.212Z,21.33
2019-02-17T22:13:54.348Z,23.13
2019-02-17T22:16:27.756Z,19.73
2019-02-17T22:19:00.525Z,24.70
2019-02-17T22:21:33.134Z,23.73
2019-02-17T22:24:06.369Z,21.37
2019-02-17T22:26:43.110Z,19.80
2019-02-17T22:29:14.088Z,27.87
2019-02-17T22:31:46.733Z,19.87
2019-02-17T22:34:17.471Z,18.90
2019-02-17T22:36:48.280Z,19.30
2019-02-17T22:39:22.380Z,22.73
2019-02-17T22:41:53.320Z,21.27
2019-02-17T22:44:24.023Z,20.90
2019-02-17T22:46:54.926Z,21.83
2019-02-17T22:49:25.748Z,22.13
2019-02-17T22:51:56.588Z,20.17
2019-02-17T22:54:30.192Z,21.03
2019-02-17T22:57:03.962Z,23.50
2019-02-17T22:59:34.715Z,18.57
2019-02-17T23:02:06.729Z,23.10
2019-02-17T23:04:40.133Z,22.70
2019-02-17T23:07:12.804Z,17.60
2019-02-17T23:09:46.765Z,21.20
2019-02-17T23:12:18.012Z,19.67
2019-02-17T23:14:48.816Z,22.73
2019-02-17T23:17:22.366Z,19.50
2019-02-17T23:19:54.296Z,19.93
2019-02-17T23:22:26.477Z,20.67
2019-02-17T23:24:59.215Z,24.03
2019-02-17T23:27:30.244Z,22.80
2019-02-17T23:30:02.544Z,22.43
2019-02-17T23:32:35.421Z,20.97
2019-02-17T23:35:09.380Z,20.50
2019-02-17T23:37:40.058Z,23.83
2019-02-17T23:40:10.861Z,17.90
2019-02-17T23:42:41.615Z,19.67
2019-02-17T23:45:12.491Z,19.50
2019-02-17T23:47:43.253Z,18.20
2019-02-17T23:50:14.575Z,18.80
2019-02-17T23:52:45.184Z,19.47
2019-02-17T23:55:16.104Z,18.90
2019-02-17T23:57:46.792Z,22.33
